Time;durP1;ratioP1;P1;durP2;ratioP2;P2;SDS_P1;SDS_P2;PMS_P1;PMS_P2;Temp;Humidity;BMP_temperature;BMP_pressure;BME280_temperature;BME280_humidity;BME280_pressure;Samples;Min_cycle;Max_cycle;Signal;HPM_P1;HPM_P2
2022/11/29 00:01:06;;;;;;;0.90;0.47;;;27.80;50.00;;;;;;4936682;29;20203;-68
2022/11/29 00:03:34;;;;;;;2.67;0.50;;;27.80;45.10;;;;;;4936891;29;20236;-68
2022/11/29 00:06:12;;;;;;;2.77;0.47;;;27.40;44.10;;;;;;4936296;29;20658;-70
2022/11/29 00:08:40;;;;;;;2.87;0.53;;;27.30;49.00;;;;;;4936536;29;20729;-69
2022/11/29 00:11:10;;;;;;;1.77;0.77;;;27.30;47.90;;;;;;4936754;29;20185;-72
2022/11/29 00:13:38;;;;;;;3.10;0.63;;;27.50;45.20;;;;;;4936790;29;20172;-69
2022/11/29 00:16:11;;;;;;;1.30;0.30;;;27.50;40.80;;;;;;4935653;29;20176;-72
2022/11/29 00:18:38;;;;;;;0.83;0.40;;;27.40;43.30;;;;;;4936789;29;20211;-70
2022/11/29 00:21:09;;;;;;;1.00;0.37;;;27.20;43.20;;;;;;4936763;29;20188;-69
2022/11/29 00:23:36;;;;;;;2.40;0.80;;;27.10;42.80;;;;;;4936378;29;20192;-69
2022/11/29 00:26:07;;;;;;;1.23;0.53;;;27.50;44.80;;;;;;4936532;29;20235;-69
2022/11/29 00:28:36;;;;;;;1.53;0.40;;;27.40;43.00;;;;;;4936680;29;20215;-69
2022/11/29 00:31:25;;;;;;;1.07;0.47;;;27.50;46.90;;;;;;4936235;29;20255;-72
2022/11/29 00:33:53;;;;;;;5.63;0.60;;;27.60;46.50;;;;;;4936410;29;20220;-69
2022/11/29 00:36:20;;;;;;;1.87;0.73;;;27.70;45.10;;;;;;4943570;29;20187;-68
2022/11/29 00:38:48;;;;;;;0.37;0.30;;;27.90;43.00;;;;;;4942619;29;20185;-69
2022/11/29 00:41:15;;;;;;;2.73;0.50;;;28.20;46.80;;;;;;4936367;29;20185;-76
2022/11/29 00:43:43;;;;;;;1.23;0.47;;;28.20;48.50;;;;;;4936035;29;20195;-68
2022/11/29 00:46:11;;;;;;;1.80;0.50;;;27.80;41.90;;;;;;4934576;29;20282;-68
2022/11/29 00:48:39;;;;;;;4.20;0.47;;;27.90;41.50;;;;;;4916324;29;20221;-68
2022/11/29 00:51:06;;;;;;;5.40;0.70;;;27.60;40.00;;;;;;4917223;29;20698;-69
2022/11/29 00:53:36;;;;;;;4.43;0.50;;;27.40;41.40;;;;;;4935222;29;20252;-69
2022/11/29 00:56:04;;;;;;;0.87;0.30;;;27.30;40.50;;;;;;4936140;29;20658;-68
2022/11/29 00:58:32;;;;;;;4.93;0.53;;;27.30;42.10;;;;;;4935637;29;20275;-68
2022/11/29 01:00:59;;;;;;;1.23;0.30;;;27.80;40.40;;;;;;4935608;29;20177;-68
2022/11/29 01:03:27;;;;;;;1.30;0.60;;;27.90;43.30;;;;;;4933992;29;20188;-70
2022/11/29 01:06:05;;;;;;;1.00;0.53;;;27.90;39.00;;;;;;4935216;29;20278;-70
2022/11/29 01:08:32;;;;;;;1.37;0.47;;;28.10;38.40;;;;;;4934578;29;20273;-69
2022/11/29 01:11:17;;;;;;;1.43;0.40;;;28.10;41.10;;;;;;4935623;29;20180;-68
2022/11/29 01:13:45;;;;;;;1.30;0.40;;;28.20;36.90;;;;;;4936028;29;20184;-68
2022/11/29 01:16:14;;;;;;;2.13;0.40;;;28.70;43.90;;;;;;4934867;29;20192;-69
2022/11/29 01:18:43;;;;;;;0.50;0.30;;;28.80;34.90;;;;;;4935603;29;20185;-69
2022/11/29 01:21:14;;;;;;;3.83;0.50;;;28.60;35.00;;;;;;4935400;29;20195;-68
2022/11/29 01:23:42;;;;;;;1.90;0.80;;;28.80;36.80;;;;;;4934354;29;20191;-70
2022/11/29 01:26:18;;;;;;;0.33;0.30;;;29.20;41.70;;;;;;4934942;29;20717;-69
2022/11/29 01:28:48;;;;;;;0.73;0.30;;;29.50;33.80;;;;;;4935432;29;20185;-71
2022/11/29 01:31:31;;;;;;;1.07;0.40;;;29.20;38.10;;;;;;4935010;29;20184;-69
2022/11/29 01:34:01;;;;;;;0.87;0.47;;;29.60;38.60;;;;;;4935246;29;20185;-70
2022/11/29 01:36:28;;;;;;;0.90;0.50;;;29.70;39.80;;;;;;4935389;29;20525;-74
2022/11/29 01:38:58;;;;;;;1.53;0.50;;;29.30;36.10;;;;;;4934620;29;20195;-76
2022/11/29 01:41:28;;;;;;;2.13;0.40;;;29.60;41.40;;;;;;4934779;29;20184;-70
2022/11/29 01:43:59;;;;;;;1.33;0.50;;;29.80;41.70;;;;;;4935148;29;20196;-71
2022/11/29 01:46:35;;;;;;;1.33;0.50;;;29.70;33.00;;;;;;4926608;29;20266;-70
2022/11/29 01:49:18;;;;;;;0.60;0.30;;;29.30;35.20;;;;;;4917009;29;20192;-70
2022/11/29 01:52:12;;;;;;;1.13;0.50;;;28.90;34.60;;;;;;4917675;29;20186;-72
2022/11/29 01:54:46;;;;;;;2.00;0.53;;;28.60;34.30;;;;;;4899734;29;20624;-70
2022/11/29 01:57:14;;;;;;;1.00;0.63;;;28.70;33.10;;;;;;4914538;29;20180;-72
2022/11/29 01:59:45;;;;;;;1.40;0.53;;;28.50;36.90;;;;;;4896975;29;20586;-74
2022/11/29 02:02:16;;;;;;;1.67;0.47;;;28.60;37.60;;;;;;4896740;29;20221;-68
2022/11/29 02:04:46;;;;;;;2.40;0.40;;;28.70;42.80;;;;;;4897111;29;20206;-68
2022/11/29 02:07:14;;;;;;;1.30;0.47;;;28.50;35.10;;;;;;4896171;29;20717;-68
2022/11/29 02:09:42;;;;;;;0.77;0.50;;;28.90;36.20;;;;;;4897131;29;20186;-69
2022/11/29 02:12:31;;;;;;;4.20;0.87;;;28.90;31.80;;;;;;4897051;29;20262;-69
2022/11/29 02:15:21;;;;;;;1.07;0.27;;;28.60;35.40;;;;;;4896667;29;20288;-69
2022/11/29 02:18:09;;;;;;;5.77;0.50;;;28.40;32.60;;;;;;4896446;29;20644;-68
2022/11/29 02:20:56;;;;;;;1.30;0.47;;;27.60;30.80;;;;;;4896264;29;20672;-68
2022/11/29 02:23:57;;;;;;;1.50;0.40;;;27.30;32.70;;;;;;4896065;29;20213;-69
2022/11/29 02:26:49;;;;;;;1.97;0.50;;;27.50;39.40;;;;;;4896275;29;20655;-69
2022/11/29 02:29:32;;;;;;;2.83;0.47;;;28.10;35.40;;;;;;4898555;29;20551;-72
2022/11/29 02:32:02;;;;;;;1.53;0.50;;;28.00;34.10;;;;;;4902328;29;20189;-68
2022/11/29 02:35:00;;;;;;;0.93;0.33;;;27.40;32.80;;;;;;4896567;29;20655;-73
2022/11/29 02:37:43;;;;;;;1.13;0.30;;;27.80;36.00;;;;;;4896285;29;20178;-70
2022/11/29 02:40:23;;;;;;;0.57;0.30;;;28.00;38.40;;;;;;4895009;29;20190;-70
2022/11/29 02:43:06;;;;;;;1.13;0.67;;;28.00;35.40;;;;;;4892897;29;20591;-68
2022/11/29 02:46:01;;;;;;;2.83;0.33;;;28.00;32.20;;;;;;4895318;29;20213;-68
2022/11/29 02:49:03;;;;;;;3.50;0.33;;;27.70;36.50;;;;;;4915957;29;20268;-71
2022/11/29 02:51:52;;;;;;;3.40;0.50;;;27.20;34.90;;;;;;4910447;29;20185;-68
2022/11/29 02:54:36;;;;;;;1.87;0.30;;;27.20;38.10;;;;;;4915463;29;20177;-67
2022/11/29 02:57:40;;;;;;;0.93;0.30;;;27.30;37.20;;;;;;4915094;29;20185;-67
2022/11/29 03:00:09;;;;;;;0.97;0.53;;;27.70;38.90;;;;;;4914545;29;20236;-67
2022/11/29 03:02:58;;;;;;;7.83;0.60;;;27.50;36.50;;;;;;4912518;29;20296;-68
2022/11/29 03:05:32;;;;;;;2.57;0.70;;;27.40;36.60;;;;;;4915187;29;20217;-68
2022/11/29 03:08:38;;;;;;;0.40;0.30;;;27.30;36.20;;;;;;4914711;29;20174;-68
2022/11/29 03:11:40;;;;;;;3.90;0.50;;;27.30;37.10;;;;;;4888001;29;20286;-68
2022/11/29 03:14:30;;;;;;;3.93;0.53;;;27.10;36.80;;;;;;4914555;29;20213;-67
2022/11/29 03:17:12;;;;;;;2.17;0.43;;;27.00;43.10;;;;;;4912562;29;20214;-69
2022/11/29 03:20:13;;;;;;;3.93;0.70;;;26.70;36.70;;;;;;4907720;29;20181;-68
2022/11/29 03:22:48;;;;;;;1.73;0.50;;;27.00;44.20;;;;;;4914700;29;20675;-69
2022/11/29 03:25:49;;;;;;;6.47;0.80;;;26.90;42.40;;;;;;4914844;29;20643;-68
2022/11/29 03:28:19;;;;;;;0.70;0.43;;;26.90;45.50;;;;;;4914781;29;20200;-68
2022/11/29 03:31:05;;;;;;;2.20;0.60;;;26.80;41.80;;;;;;4909458;29;20644;-68
2022/11/29 03:33:47;;;;;;;1.13;0.30;;;27.00;39.10;;;;;;4933258;29;20189;-68
2022/11/29 03:36:21;;;;;;;1.60;0.50;;;26.90;42.70;;;;;;4918161;29;20173;-69
2022/11/29 03:38:54;;;;;;;2.40;0.57;;;26.90;40.70;;;;;;4914090;29;20243;-68
2022/11/29 03:41:25;;;;;;;1.87;0.63;;;27.10;39.60;;;;;;4914406;29;20192;-74
2022/11/29 03:44:09;;;;;;;1.30;0.67;;;27.00;39.60;;;;;;4916785;29;20244;-73
2022/11/29 03:46:46;;;;;;;1.07;0.40;;;26.70;41.50;;;;;;4911618;29;20281;-68
2022/11/29 03:49:26;;;;;;;3.90;0.50;;;26.60;42.70;;;;;;4918629;29;20183;-68
2022/11/29 03:52:15;;;;;;;0.80;0.40;;;26.70;47.20;;;;;;4917442;29;20192;-68
2022/11/29 03:54:56;;;;;;;4.13;0.80;;;26.80;47.40;;;;;;4916008;29;20189;-74
2022/11/29 03:57:33;;;;;;;2.57;0.60;;;26.80;47.60;;;;;;4918234;29;20195;-71
2022/11/29 04:00:11;;;;;;;3.47;0.60;;;27.00;52.00;;;;;;4917981;29;20718;-68
2022/11/29 04:02:59;;;;;;;4.00;0.80;;;27.30;52.60;;;;;;4917741;29;20185;-68
2022/11/29 04:05:44;;;;;;;2.00;0.40;;;26.80;54.70;;;;;;4917534;29;20220;-68
2022/11/29 04:08:47;;;;;;;6.53;1.03;;;26.70;58.90;;;;;;4907002;29;20295;-68
2022/11/29 04:11:57;;;;;;;3.27;0.70;;;26.40;62.80;;;;;;4907441;29;20292;-68
2022/11/29 04:14:46;;;;;;;1.10;0.60;;;26.30;70.20;;;;;;4887300;29;20210;-69
2022/11/29 04:17:38;;;;;;;1.40;0.50;;;26.50;69.20;;;;;;4913978;29;20280;-69
2022/11/29 04:20:18;;;;;;;3.70;0.53;;;26.30;74.20;;;;;;4917517;29;20182;-70
2022/11/29 04:23:12;;;;;;;1.33;0.60;;;26.10;86.80;;;;;;4905459;29;20190;-69
2022/11/29 04:25:39;;;;;;;2.40;0.60;;;26.20;78.30;;;;;;4900783;29;20220;-70
2022/11/29 04:28:10;;;;;;;2.40;0.80;;;26.20;80.90;;;;;;4917347;29;20189;-70
2022/11/29 04:30:53;;;;;;;2.40;0.60;;;26.10;83.60;;;;;;4917871;29;20177;-73
2022/11/29 04:33:53;;;;;;;1.67;0.60;;;26.00;90.80;;;;;;4917907;29;20184;-70
2022/11/29 04:36:42;;;;;;;5.87;0.80;;;26.20;90.90;;;;;;4882100;29;20248;-68
2022/11/29 04:39:41;;;;;;;1.80;0.70;;;26.30;86.80;;;;;;4898851;29;20189;-69
2022/11/29 04:42:35;;;;;;;2.27;0.60;;;25.90;93.40;;;;;;4909097;29;20201;-68
2022/11/29 04:45:09;;;;;;;3.70;0.73;;;25.90;92.00;;;;;;4917396;29;20183;-68
2022/11/29 04:47:55;;;;;;;3.33;0.87;;;25.80;91.20;;;;;;4932938;29;20287;-69
2022/11/29 04:51:08;;;;;;;5.27;1.03;;;25.90;90.00;;;;;;4935936;29;20181;-70
2022/11/29 04:54:04;;;;;;;3.63;0.77;;;26.00;92.10;;;;;;4887079;29;20298;-68
2022/11/29 04:56:46;;;;;;;2.90;0.83;;;26.10;90.60;;;;;;4917359;29;20204;-71
2022/11/29 04:59:33;;;;;;;2.23;0.57;;;26.00;92.00;;;;;;4917357;29;20181;-69
2022/11/29 05:02:13;;;;;;;3.20;0.60;;;25.90;92.30;;;;;;4917215;29;20961;-72
2022/11/29 05:04:55;;;;;;;2.53;0.80;;;25.90;93.40;;;;;;4916779;29;20185;-69
2022/11/29 05:07:33;;;;;;;6.10;0.90;;;25.90;97.60;;;;;;4916958;29;20244;-69
2022/11/29 05:10:07;;;;;;;4.67;0.90;;;25.90;99.90;;;;;;4916951;29;20593;-69
2022/11/29 05:13:03;;;;;;;3.03;0.93;;;25.60;99.90;;;;;;4931091;29;20217;-70
2022/11/29 05:15:52;;;;;;;3.23;0.80;;;25.40;99.90;;;;;;4931614;29;20213;-69
2022/11/29 05:18:28;;;;;;;14.17;1.30;;;24.80;99.90;;;;;;4916827;29;20242;-68
2022/11/29 05:21:34;;;;;;;9.30;1.17;;;24.70;99.90;;;;;;4916456;29;20319;-69
2022/11/29 05:24:27;;;;;;;7.70;1.40;;;24.60;99.90;;;;;;4891381;29;20199;-71
2022/11/29 05:27:24;;;;;;;6.83;1.20;;;24.50;99.90;;;;;;4913614;29;20300;-71
2022/11/29 05:29:58;;;;;;;6.30;1.43;;;24.20;99.90;;;;;;4922562;29;20212;-68
2022/11/29 05:33:03;;;;;;;10.03;1.43;;;23.80;99.90;;;;;;4929091;29;20349;-68
2022/11/29 05:35:37;;;;;;;4.43;1.23;;;23.70;99.90;;;;;;4873132;29;20205;-68
2022/11/29 05:38:20;;;;;;;5.03;1.17;;;23.30;99.90;;;;;;4920605;29;20198;-67
2022/11/29 05:41:12;;;;;;;4.73;1.13;;;22.90;99.90;;;;;;4931121;29;20184;-67
2022/11/29 05:44:02;;;;;;;6.83;1.40;;;22.80;99.90;;;;;;4927125;29;20235;-74
2022/11/29 05:46:42;;;;;;;7.47;1.30;;;22.60;99.90;;;;;;4916182;29;20707;-68
2022/11/29 05:49:30;;;;;;;8.10;1.27;;;22.50;99.90;;;;;;4915781;29;20175;-67
2022/11/29 05:52:04;;;;;;;9.20;2.00;;;22.50;99.90;;;;;;4916066;29;20354;-68
2022/11/29 05:54:57;;;;;;;5.30;1.23;;;23.20;99.90;;;;;;4916283;29;20264;-70
2022/11/29 05:57:44;;;;;;;4.97;1.53;;;23.90;99.90;;;;;;4893247;29;20205;-76
2022/11/29 06:00:15;;;;;;;4.20;1.40;;;23.70;99.90;;;;;;4897068;29;20174;-76
2022/11/29 06:02:48;;;;;;;6.57;1.30;;;23.70;99.90;;;;;;4914594;29;20611;-68
2022/11/29 06:05:52;;;;;;;4.33;1.40;;;23.90;99.90;;;;;;4925831;29;20189;-73
2022/11/29 06:08:28;;;;;;;12.70;3.87;;;23.70;99.90;;;;;;4931984;29;20239;-67
2022/11/29 06:11:11;;;;;;;3.77;1.20;;;23.60;99.90;;;;;;4915630;29;20236;-67
2022/11/29 06:14:08;;;;;;;5.67;1.70;;;23.70;99.90;;;;;;4923985;29;20271;-72
2022/11/29 06:17:06;;;;;;;8.50;2.10;;;23.60;99.90;;;;;;4917763;29;20316;-68
2022/11/29 06:20:09;;;;;;;12.67;2.30;;;23.80;99.90;;;;;;4924481;29;20188;-74
2022/11/29 06:23:17;;;;;;;13.47;2.27;;;23.20;99.90;;;;;;4915213;29;20181;-71
2022/11/29 06:25:55;;;;;;;10.37;1.97;;;22.90;99.90;;;;;;4872067;29;20265;-73
2022/11/29 06:28:38;;;;;;;9.03;2.33;;;23.20;99.90;;;;;;4911027;29;20211;-67
2022/11/29 06:31:19;;;;;;;11.90;2.40;;;23.20;99.90;;;;;;4909259;29;20581;-67
2022/11/29 06:33:55;;;;;;;9.23;2.17;;;23.10;99.90;;;;;;4898323;29;20640;-76
2022/11/29 06:36:51;;;;;;;10.80;2.03;;;23.00;99.90;;;;;;4915132;29;20189;-75
2022/11/29 06:39:19;;;;;;;7.23;1.80;;;22.70;99.90;;;;;;4907705;29;20208;-69
2022/11/29 06:41:47;;;;;;;8.77;1.67;;;22.50;99.90;;;;;;4915277;29;20181;-73
2022/11/29 06:44:16;;;;;;;9.07;1.93;;;22.40;99.90;;;;;;4915313;29;20554;-69
2022/11/29 06:46:50;;;;;;;7.90;1.70;;;22.40;99.90;;;;;;4915303;29;20657;-70
2022/11/29 06:49:56;;;;;;;9.53;1.90;;;22.60;99.90;;;;;;4914916;29;20228;-77
2022/11/29 06:52:32;;;;;;;6.23;1.60;;;22.70;99.90;;;;;;4857264;29;20278;-72
2022/11/29 06:55:21;;;;;;;10.00;2.10;;;22.70;99.90;;;;;;4909311;29;20632;-74
2022/11/29 06:58:05;;;;;;;9.27;1.93;;;22.70;99.90;;;;;;4915588;29;20670;-72
2022/11/29 07:01:04;;;;;;;11.17;1.93;;;22.60;99.90;;;;;;4915534;29;20639;-71
2022/11/29 07:03:41;;;;;;;11.70;2.03;;;22.40;99.90;;;;;;4915096;29;20551;-75
2022/11/29 07:06:29;;;;;;;8.73;1.63;;;22.00;99.90;;;;;;4916147;29;20253;-69
2022/11/29 07:09:09;;;;;;;14.63;2.17;;;22.00;99.90;;;;;;4919067;29;20196;-69
2022/11/29 07:11:37;;;;;;;12.80;2.00;;;21.60;99.90;;;;;;4918807;29;20185;-69
2022/11/29 07:14:05;;;;;;;12.63;2.03;;;21.50;99.90;;;;;;4919189;29;20181;-69
2022/11/29 07:16:51;;;;;;;11.40;2.00;;;21.50;99.90;;;;;;4919059;29;20237;-70
2022/11/29 07:19:25;;;;;;;11.93;2.27;;;21.30;99.90;;;;;;4918727;29;20674;-77
2022/11/29 07:22:12;;;;;;;13.13;1.70;;;21.10;99.90;;;;;;4919125;29;20173;-69
2022/11/29 07:25:13;;;;;;;12.27;2.37;;;21.20;99.90;;;;;;4918989;29;20668;-69
2022/11/29 07:28:01;;;;;;;8.70;1.90;;;21.10;99.90;;;;;;4911316;29;20557;-70
2022/11/29 07:30:51;;;;;;;13.10;2.73;;;21.10;99.90;;;;;;4918923;29;20192;-69
2022/11/29 07:33:51;;;;;;;12.53;2.73;;;21.10;99.90;;;;;;4918436;29;20204;-70
2022/11/29 07:36:28;;;;;;;16.67;2.10;;;21.10;99.90;;;;;;4898613;29;20647;-67
2022/11/29 07:39:26;;;;;;;11.63;2.43;;;21.00;99.90;;;;;;4918341;29;20181;-72
2022/11/29 07:42:10;;;;;;;11.67;1.60;;;20.80;99.90;;;;;;4918416;29;20222;-76
2022/11/29 07:45:10;;;;;;;9.27;2.60;;;20.70;99.90;;;;;;4917160;29;20209;-67
2022/11/29 07:47:38;;;;;;;11.93;2.63;;;20.80;99.90;;;;;;4917868;29;20598;-70
2022/11/29 07:50:06;;;;;;;10.20;2.33;;;20.60;99.90;;;;;;4907952;29;20288;-75
2022/11/29 07:52:34;;;;;;;9.30;2.13;;;20.50;99.90;;;;;;4920394;29;20194;-71
2022/11/29 07:55:03;;;;;;;11.43;2.53;;;20.40;99.90;;;;;;4900683;29;20622;-68
2022/11/29 07:57:31;;;;;;;12.87;2.50;;;20.40;99.90;;;;;;4917840;29;20283;-73
2022/11/29 07:59:59;;;;;;;9.90;1.90;;;20.40;99.90;;;;;;4917980;29;20187;-68
2022/11/29 08:02:29;;;;;;;11.20;2.70;;;20.30;99.90;;;;;;4917429;29;20189;-68
2022/11/29 08:04:57;;;;;;;14.00;2.87;;;20.20;99.90;;;;;;4917830;29;20214;-71
2022/11/29 08:07:25;;;;;;;11.77;2.17;;;20.20;99.90;;;;;;4917824;29;20586;-72
2022/11/29 08:09:53;;;;;;;13.30;2.83;;;20.10;99.90;;;;;;4917820;29;20233;-68
2022/11/29 08:12:21;;;;;;;7.47;2.17;;;20.10;99.90;;;;;;4917994;29;20200;-68
2022/11/29 08:14:49;;;;;;;18.50;2.73;;;20.00;99.90;;;;;;4918086;29;20270;-68
2022/11/29 08:17:17;;;;;;;9.33;2.50;;;20.00;99.90;;;;;;4916198;29;20188;-68
2022/11/29 08:19:45;;;;;;;11.13;2.00;;;19.90;99.90;;;;;;4917205;29;20215;-69
2022/11/29 08:22:13;;;;;;;10.90;2.60;;;19.90;99.90;;;;;;4917618;29;20171;-69
2022/11/29 08:24:41;;;;;;;14.13;2.60;;;19.80;99.90;;;;;;4917484;29;20178;-68
2022/11/29 08:27:08;;;;;;;10.93;2.40;;;19.70;99.90;;;;;;4916853;29;20308;-68
2022/11/29 08:29:36;;;;;;;11.90;2.37;;;19.80;99.90;;;;;;4917833;29;20174;-69
2022/11/29 08:32:05;;;;;;;14.53;2.00;;;20.00;99.90;;;;;;4917360;29;20177;-69
2022/11/29 08:34:32;;;;;;;10.80;2.20;;;19.90;99.90;;;;;;4918215;29;20206;-71
2022/11/29 08:37:00;;;;;;;10.40;2.43;;;19.90;99.90;;;;;;4916464;29;20205;-71
2022/11/29 08:39:28;;;;;;;12.27;2.33;;;19.90;99.90;;;;;;4916328;29;20236;-68
2022/11/29 08:41:56;;;;;;;10.67;2.53;;;19.80;99.90;;;;;;4917775;29;20197;-75
2022/11/29 08:44:24;;;;;;;14.93;2.90;;;19.70;99.90;;;;;;4917438;29;20185;-68
2022/11/29 08:50:00;;;;;;;13.00;2.73;;;19.60;99.90;;;;;;4917568;29;20193;-68
2022/11/29 08:55:25;;;;;;;9.77;2.10;;;19.70;99.90;;;;;;4916923;29;20192;-68
2022/11/29 08:57:59;;;;;;;12.23;2.20;;;19.60;99.90;;;;;;4919479;29;20188;-68
2022/11/29 09:00:27;;;;;;;10.13;2.43;;;19.60;99.90;;;;;;4919575;29;20186;-69
2022/11/29 09:03:58;;;;;;;10.53;2.33;;;19.60;99.90;;;;;;4919462;29;20183;-67
2022/11/29 09:05:42;;;;;;;13.77;2.53;;;19.60;99.90;;;;;;4920891;29;20287;-68
2022/11/29 09:08:10;;;;;;;18.73;2.70;;;19.60;99.90;;;;;;4912589;29;20569;-74
2022/11/29 09:10:41;;;;;;;11.63;2.20;;;19.70;99.90;;;;;;4915169;29;20212;-70
2022/11/29 09:13:10;;;;;;;10.30;2.10;;;19.60;99.90;;;;;;4916307;29;20194;-68
2022/11/29 09:15:38;;;;;;;12.33;2.17;;;19.60;99.90;;;;;;4916848;29;20178;-68
2022/11/29 09:18:06;;;;;;;10.97;2.20;;;19.60;99.90;;;;;;4916680;29;20184;-68
2022/11/29 09:20:34;;;;;;;11.50;2.80;;;19.70;99.90;;;;;;4916967;29;20186;-70
2022/11/29 09:23:02;;;;;;;13.70;2.20;;;19.60;99.90;;;;;;4916463;29;20179;-69
2022/11/29 09:25:30;;;;;;;7.23;2.40;;;19.60;99.90;;;;;;4926020;29;20194;-69
2022/11/29 09:28:01;;;;;;;18.77;3.33;;;19.50;99.90;;;;;;4935750;29;20538;-69
2022/11/29 09:30:31;;;;;;;13.30;2.33;;;19.50;99.90;;;;;;4935276;29;20191;-72
2022/11/29 09:33:04;;;;;;;16.70;2.47;;;19.50;99.90;;;;;;4927724;29;20212;-73
2022/11/29 09:35:32;;;;;;;15.03;2.30;;;19.50;99.90;;;;;;4916640;29;20603;-69
2022/11/29 09:38:00;;;;;;;8.00;2.40;;;19.40;99.90;;;;;;4915758;29;20189;-71
2022/11/29 09:40:40;;;;;;;10.13;2.20;;;19.40;99.90;;;;;;4923318;29;20177;-73
2022/11/29 09:43:21;;;;;;;15.03;3.10;;;19.40;99.90;;;;;;4921127;29;20258;-71
2022/11/29 09:45:55;;;;;;;17.63;2.73;;;19.30;99.90;;;;;;4921299;29;20213;-70
2022/11/29 09:48:36;;;;;;;10.00;2.50;;;19.30;99.90;;;;;;4921116;29;20263;-71
2022/11/29 09:51:30;;;;;;;11.77;2.10;;;19.30;99.90;;;;;;4920485;29;20187;-70
2022/11/29 09:54:10;;;;;;;16.03;3.13;;;19.40;99.90;;;;;;4922471;29;20538;-70
2022/11/29 09:56:45;;;;;;;12.70;2.07;;;19.40;99.90;;;;;;4919577;29;20216;-72
2022/11/29 09:59:18;;;;;;;16.30;3.40;;;19.40;99.90;;;;;;4918559;29;20535;-71
2022/11/29 10:01:52;;;;;;;12.27;2.17;;;19.40;99.90;;;;;;4923058;29;20206;-70
2022/11/29 10:04:24;;;;;;;11.97;2.60;;;19.40;99.90;;;;;;4923543;29;20236;-71
2022/11/29 10:07:06;;;;;;;13.67;2.63;;;19.40;99.90;;;;;;4922983;29;20302;-72
2022/11/29 10:09:48;;;;;;;7.83;2.33;;;19.40;99.90;;;;;;4915716;29;20188;-71
2022/11/29 10:12:36;;;;;;;12.97;2.37;;;19.40;99.90;;;;;;4915869;29;20296;-72
2022/11/29 10:15:15;;;;;;;14.03;3.17;;;19.30;99.90;;;;;;4915625;29;20184;-72
2022/11/29 10:18:10;;;;;;;15.23;3.00;;;19.30;99.90;;;;;;4916030;29;20177;-71
2022/11/29 10:20:41;;;;;;;19.03;3.53;;;19.20;99.90;;;;;;4915625;29;20525;-73
2022/11/29 10:23:31;;;;;;;16.63;2.97;;;19.30;99.90;;;;;;4916738;29;20186;-70
2022/11/29 10:25:59;;;;;;;21.07;3.50;;;19.00;99.90;;;;;;4916576;29;20209;-70
2022/11/29 10:28:31;;;;;;;12.87;2.70;;;19.10;99.90;;;;;;4916726;29;20213;-70
2022/11/29 10:31:23;;;;;;;23.60;3.50;;;19.10;99.90;;;;;;4916955;29;20234;-72
2022/11/29 10:33:52;;;;;;;9.97;2.93;;;19.10;99.90;;;;;;4917173;29;21927;-71
2022/11/29 10:36:29;;;;;;;10.33;2.90;;;19.10;99.90;;;;;;4920909;29;20220;-71
2022/11/29 10:39:00;;;;;;;15.53;3.87;;;19.10;99.90;;;;;;4916459;29;20188;-71
2022/11/29 10:41:28;;;;;;;13.10;2.83;;;19.10;99.90;;;;;;4915653;29;20646;-70
2022/11/29 10:43:59;;;;;;;16.20;3.60;;;19.10;99.90;;;;;;4916778;29;20539;-70
2022/11/29 10:46:38;;;;;;;9.83;2.30;;;19.10;99.90;;;;;;4916072;29;20229;-69
2022/11/29 10:49:13;;;;;;;12.60;2.93;;;19.10;99.90;;;;;;4916698;29;20655;-71
2022/11/29 10:51:41;;;;;;;16.07;2.80;;;19.10;99.90;;;;;;4916861;29;20186;-71
2022/11/29 10:54:35;;;;;;;17.80;2.67;;;19.10;99.90;;;;;;4916543;29;20561;-73
2022/11/29 10:57:07;;;;;;;14.73;2.87;;;19.00;99.90;;;;;;4916288;29;20219;-71
2022/11/29 10:59:35;;;;;;;11.10;2.90;;;19.00;99.90;;;;;;4916589;29;20728;-71
2022/11/29 11:02:05;;;;;;;14.43;2.90;;;19.00;99.90;;;;;;4916751;29;20185;-70
2022/11/29 11:04:44;;;;;;;15.33;2.53;;;19.00;99.90;;;;;;4916213;29;20173;-71
2022/11/29 11:07:30;;;;;;;13.47;2.50;;;19.00;99.90;;;;;;4908577;29;20280;-71
2022/11/29 11:09:59;;;;;;;19.43;2.97;;;19.10;99.90;;;;;;4916206;29;20225;-73
2022/11/29 11:12:29;;;;;;;14.37;3.50;;;19.00;99.90;;;;;;4916367;29;20285;-71
2022/11/29 11:15:29;;;;;;;11.77;2.63;;;19.10;99.90;;;;;;4916200;29;20599;-73
2022/11/29 11:18:05;;;;;;;20.47;3.30;;;19.00;99.90;;;;;;4915774;29;20186;-70
2022/11/29 11:20:36;;;;;;;12.93;3.30;;;18.90;99.90;;;;;;4899528;29;20719;-70
2022/11/29 11:23:06;;;;;;;13.53;3.00;;;19.00;99.90;;;;;;4915955;29;20193;-70
2022/11/29 11:25:37;;;;;;;19.43;4.30;;;19.00;99.90;;;;;;4915773;29;20177;-73
2022/11/29 11:28:25;;;;;;;13.17;2.63;;;18.90;99.90;;;;;;4916639;29;20560;-72
2022/11/29 11:31:10;;;;;;;11.43;2.87;;;18.80;99.90;;;;;;4916608;29;20173;-71
2022/11/29 11:33:46;;;;;;;14.60;2.83;;;18.80;99.90;;;;;;4897562;29;20274;-70
2022/11/29 11:36:20;;;;;;;16.43;3.30;;;18.80;99.90;;;;;;4908699;29;20662;-68
2022/11/29 11:39:16;;;;;;;14.93;2.70;;;18.80;99.90;;;;;;4916107;29;20269;-69
2022/11/29 11:44:38;;;;;;;18.80;3.20;;;18.80;99.90;;;;;;4897308;29;20567;-71
2022/11/29 11:47:07;;;;;;;11.70;2.80;;;18.80;99.90;;;;;;4915112;29;20284;-70
2022/11/29 11:49:49;;;;;;;9.93;2.40;;;18.80;99.90;;;;;;4916143;29;20177;-70
2022/11/29 11:52:29;;;;;;;9.00;2.50;;;18.90;99.90;;;;;;4917362;29;20275;-70
2022/11/29 11:55:04;;;;;;;13.27;2.70;;;18.90;99.90;;;;;;4919679;29;20643;-68
2022/11/29 11:57:33;;;;;;;17.23;3.33;;;18.90;99.90;;;;;;4919712;29;20192;-70
2022/11/29 12:00:01;;;;;;;13.20;3.33;;;18.90;99.90;;;;;;4919299;29;20662;-70
2022/11/29 12:02:37;;;;;;;12.97;3.03;;;19.00;99.90;;;;;;4919759;29;20218;-70
2022/11/29 12:05:12;;;;;;;10.80;2.50;;;18.90;99.90;;;;;;4919622;29;20632;-70
2022/11/29 12:07:56;;;;;;;16.00;3.10;;;18.90;99.90;;;;;;4900641;29;20311;-69
2022/11/29 12:10:30;;;;;;;17.90;2.47;;;18.90;99.90;;;;;;4900913;29;20185;-68
2022/11/29 12:13:00;;;;;;;12.87;2.93;;;18.90;99.90;;;;;;4918662;29;20220;-68
2022/11/29 12:15:33;;;;;;;14.93;2.73;;;18.80;99.90;;;;;;4933705;29;20177;-68
2022/11/29 12:18:27;;;;;;;12.23;2.77;;;18.80;99.90;;;;;;4900808;29;20238;-69
2022/11/29 12:21:23;;;;;;;16.43;2.90;;;18.80;99.90;;;;;;4900669;29;20181;-69
2022/11/29 12:23:55;;;;;;;14.47;2.70;;;18.80;99.90;;;;;;4904852;29;20177;-71
2022/11/29 12:26:40;;;;;;;17.20;3.43;;;18.80;99.90;;;;;;4918971;29;20703;-72
2022/11/29 12:29:17;;;;;;;13.23;2.97;;;18.80;99.90;;;;;;4919121;29;20670;-73
2022/11/29 12:31:54;;;;;;;27.63;3.10;;;18.70;99.90;;;;;;4919245;29;20187;-71
2022/11/29 12:34:45;;;;;;;15.67;3.00;;;18.70;99.90;;;;;;4919190;29;20185;-72
2022/11/29 12:37:34;;;;;;;10.77;2.53;;;18.70;99.90;;;;;;4918931;29;20205;-73
2022/11/29 12:40:14;;;;;;;15.57;3.37;;;18.70;99.90;;;;;;4918887;29;20177;-70
2022/11/29 12:42:56;;;;;;;16.33;2.30;;;18.70;99.90;;;;;;4919112;29;20181;-69
2022/11/29 12:45:40;;;;;;;14.60;2.97;;;18.80;99.90;;;;;;4918723;29;20232;-72
2022/11/29 12:48:52;;;;;;;14.67;3.17;;;18.70;99.90;;;;;;4910181;29;20281;-68
2022/11/29 12:51:39;;;;;;;9.87;2.30;;;18.70;99.90;;;;;;4879242;29;20192;-68
2022/11/29 12:54:27;;;;;;;13.40;2.43;;;18.60;99.90;;;;;;4879097;29;20187;-71
2022/11/29 12:57:35;;;;;;;21.60;2.90;;;18.70;99.90;;;;;;4908739;29;20197;-70
2022/11/29 13:00:10;;;;;;;12.63;2.30;;;18.70;99.90;;;;;;4918687;29;20316;-68
2022/11/29 13:03:02;;;;;;;9.93;2.70;;;18.70;99.90;;;;;;4918350;29;20199;-69
2022/11/29 13:06:00;;;;;;;7.87;2.03;;;18.70;99.90;;;;;;4917298;29;20201;-72
2022/11/29 13:08:55;;;;;;;12.40;2.10;;;18.70;99.90;;;;;;4901937;29;20272;-68
2022/11/29 13:11:33;;;;;;;11.03;2.40;;;18.70;99.90;;;;;;4914239;29;20194;-72
2022/11/29 13:14:31;;;;;;;14.37;2.63;;;18.70;99.90;;;;;;4918393;29;20171;-72
2022/11/29 13:17:12;;;;;;;14.13;2.80;;;18.70;99.90;;;;;;4917893;29;20189;-72
2022/11/29 13:19:54;;;;;;;17.73;2.83;;;18.70;99.90;;;;;;4918430;29;20259;-69
2022/11/29 13:22:29;;;;;;;10.67;2.50;;;18.70;99.90;;;;;;4918254;29;20184;-70
2022/11/29 13:25:33;;;;;;;8.70;2.60;;;18.70;99.90;;;;;;4918307;29;20190;-70
2022/11/29 13:28:18;;;;;;;20.87;3.07;;;18.70;99.90;;;;;;4887298;29;20213;-68
2022/11/29 13:30:46;;;;;;;12.20;2.40;;;18.80;99.90;;;;;;4899588;29;20182;-69
2022/11/29 13:33:32;;;;;;;12.77;2.83;;;18.70;99.90;;;;;;4899168;29;20188;-69
2022/11/29 13:36:03;;;;;;;14.63;2.77;;;18.70;99.90;;;;;;4905032;29;20648;-69
2022/11/29 13:38:56;;;;;;;12.63;2.77;;;18.70;99.90;;;;;;4916378;29;20588;-69
2022/11/29 13:41:30;;;;;;;9.87;2.87;;;18.60;99.90;;;;;;4917406;29;20185;-71
2022/11/29 13:44:04;;;;;;;11.77;2.40;;;18.70;99.90;;;;;;4901067;29;20180;-71
2022/11/29 13:46:59;;;;;;;8.37;2.40;;;18.60;99.90;;;;;;4916075;29;20604;-70
2022/11/29 13:50:03;;;;;;;10.63;2.33;;;18.70;99.90;;;;;;4917998;29;20666;-68
2022/11/29 13:52:47;;;;;;;12.13;2.80;;;18.70;99.90;;;;;;4917694;29;20189;-69
2022/11/29 13:55:28;;;;;;;16.40;3.50;;;18.60;99.90;;;;;;4917678;29;20229;-71